Time;durP1;ratioP1;P1;durP2;ratioP2;P2;SDS_P1;SDS_P2;PMS_P1;PMS_P2;Temp;Humidity;BMP_temperature;BMP_pressure;BME280_temperature;BME280_humidity;BME280_pressure;Samples;Min_cycle;Max_cycle;Signal;HPM_P1;HPM_P2
2022/08/16 00:01:54;;;;;;;28.53;26.23;;;;;;;;;;5093110;28;20458;-77
2022/08/16 00:04:21;;;;;;;28.63;26.50;;;;;;;;;;5092806;28;20426;-76
2022/08/16 00:06:49;;;;;;;28.83;26.73;;;;;;;;;;5092771;28;20433;-76
2022/08/16 00:09:16;;;;;;;27.43;25.73;;;;;;;;;;5093118;28;20453;-76
2022/08/16 00:11:45;;;;;;;28.87;26.77;;;;;;;;;;5092711;28;20439;-76
2022/08/16 00:14:14;;;;;;;29.00;26.87;;;;;;;;;;5092985;28;20433;-76
2022/08/16 00:16:41;;;;;;;29.80;27.40;;;;;;;;;;5092529;28;20458;-76
2022/08/16 00:19:09;;;;;;;28.13;26.23;;;;;;;;;;5092963;28;20447;-76
2022/08/16 00:21:36;;;;;;;30.83;28.63;;;;;;;;;;5092894;28;20479;-76
2022/08/16 00:24:04;;;;;;;27.87;26.03;;;;;;;;;;5092586;28;20440;-76
2022/08/16 00:26:31;;;;;;;27.80;26.00;;;;;;;;;;5092427;28;20457;-76
2022/08/16 00:29:00;;;;;;;28.57;26.77;;;;;;;;;;5091335;28;20440;-76
2022/08/16 00:31:27;;;;;;;28.67;26.87;;;;;;;;;;5092656;28;20761;-76
2022/08/16 00:33:55;;;;;;;27.73;25.90;;;;;;;;;;5091346;28;20441;-76
2022/08/16 00:36:22;;;;;;;28.77;26.87;;;;;;;;;;5091625;28;20539;-76
2022/08/16 00:38:50;;;;;;;28.13;25.83;;;;;;;;;;5092661;28;20419;-76
2022/08/16 00:41:18;;;;;;;27.20;25.30;;;;;;;;;;5092303;28;20487;-76
2022/08/16 00:43:45;;;;;;;29.20;27.10;;;;;;;;;;5091336;28;20538;-76
2022/08/16 00:46:19;;;;;;;28.30;26.60;;;;;;;;;;5092304;28;20455;-76
2022/08/16 00:48:47;;;;;;;28.13;26.20;;;;;;;;;;5092693;28;20421;-77
2022/08/16 00:51:15;;;;;;;28.43;26.73;;;;;;;;;;5092180;28;20440;-76
2022/08/16 00:53:43;;;;;;;28.07;25.80;;;;;;;;;;5092222;28;20443;-76
2022/08/16 00:56:13;;;;;;;27.00;25.13;;;;;;;;;;5092083;28;20942;-76
2022/08/16 00:58:43;;;;;;;26.40;24.70;;;;;;;;;;5093951;28;20447;-77
2022/08/16 01:01:11;;;;;;;27.27;25.40;;;;;;;;;;5096036;28;20501;-76
2022/08/16 01:03:41;;;;;;;25.57;24.03;;;;;;;;;;5096346;28;20444;-76
2022/08/16 01:06:09;;;;;;;27.73;25.77;;;;;;;;;;5096473;28;20413;-76
2022/08/16 01:08:37;;;;;;;26.80;24.90;;;;;;;;;;5095846;28;20837;-77
2022/08/16 01:11:04;;;;;;;27.80;25.90;;;;;;;;;;5096090;28;20410;-76
2022/08/16 01:13:33;;;;;;;27.57;25.53;;;;;;;;;;5096252;28;20448;-76
2022/08/16 01:16:02;;;;;;;27.70;25.93;;;;;;;;;;5095780;28;20499;-76
2022/08/16 01:18:32;;;;;;;26.97;25.03;;;;;;;;;;5096305;28;20439;-76
2022/08/16 01:21:03;;;;;;;27.07;25.03;;;;;;;;;;5095783;28;20482;-76
2022/08/16 01:23:34;;;;;;;28.23;26.33;;;;;;;;;;5094400;28;20495;-76
2022/08/16 01:26:03;;;;;;;27.73;25.80;;;;;;;;;;5095628;28;21243;-76
2022/08/16 01:28:31;;;;;;;28.00;26.10;;;;;;;;;;5095755;28;20451;-76
2022/08/16 01:30:59;;;;;;;26.63;25.07;;;;;;;;;;5095948;28;20976;-76
2022/08/16 01:33:26;;;;;;;27.20;25.53;;;;;;;;;;5095971;28;20435;-76
2022/08/16 01:35:56;;;;;;;27.03;25.20;;;;;;;;;;5095962;28;20443;-76
2022/08/16 01:38:26;;;;;;;25.97;24.43;;;;;;;;;;5095876;28;20409;-76
2022/08/16 01:40:56;;;;;;;25.73;24.23;;;;;;;;;;5095796;28;20478;-76
2022/08/16 01:43:26;;;;;;;26.57;24.97;;;;;;;;;;5095379;28;20419;-76
2022/08/16 01:45:55;;;;;;;26.97;25.03;;;;;;;;;;5095617;28;20448;-77
2022/08/16 01:48:23;;;;;;;27.97;25.63;;;;;;;;;;5095303;28;20480;-77
2022/08/16 01:50:52;;;;;;;26.73;25.10;;;;;;;;;;5093993;28;20513;-76
2022/08/16 01:53:19;;;;;;;25.53;24.00;;;;;;;;;;5095190;28;20913;-76
2022/08/16 01:55:46;;;;;;;27.20;25.43;;;;;;;;;;5095460;28;20799;-76
2022/08/16 01:58:15;;;;;;;26.10;24.23;;;;;;;;;;5095235;28;20410;-76
2022/08/16 02:00:44;;;;;;;26.10;24.60;;;;;;;;;;5095055;28;20432;-76
2022/08/16 02:03:11;;;;;;;26.13;24.53;;;;;;;;;;5095349;28;20415;-76
2022/08/16 02:05:39;;;;;;;25.60;23.90;;;;;;;;;;5095303;28;20415;-76
2022/08/16 02:08:07;;;;;;;24.97;23.40;;;;;;;;;;5095427;28;20892;-76
2022/08/16 02:10:35;;;;;;;25.50;24.00;;;;;;;;;;5094529;28;20446;-76
2022/08/16 02:13:03;;;;;;;25.40;23.80;;;;;;;;;;5095158;28;20904;-76
2022/08/16 02:15:31;;;;;;;25.93;24.33;;;;;;;;;;5094628;28;20457;-76
2022/08/16 02:18:01;;;;;;;25.83;24.43;;;;;;;;;;5094634;28;20437;-77
2022/08/16 02:20:29;;;;;;;26.70;25.00;;;;;;;;;;5094735;28;20442;-76
2022/08/16 02:22:57;;;;;;;25.13;23.67;;;;;;;;;;5094906;28;20426;-76
2022/08/16 02:25:26;;;;;;;25.93;24.43;;;;;;;;;;5094861;28;20432;-76
2022/08/16 02:27:54;;;;;;;26.10;24.50;;;;;;;;;;5094408;28;20814;-76
2022/08/16 02:30:23;;;;;;;25.83;24.13;;;;;;;;;;5095111;28;20454;-76
2022/08/16 02:32:50;;;;;;;26.90;25.00;;;;;;;;;;5094407;28;20414;-76
2022/08/16 02:35:19;;;;;;;25.20;23.70;;;;;;;;;;5094837;28;20514;-76
2022/08/16 02:37:46;;;;;;;26.37;24.77;;;;;;;;;;5094719;28;20410;-76
2022/08/16 02:40:15;;;;;;;25.80;24.30;;;;;;;;;;5094296;28;20454;-76
2022/08/16 02:42:43;;;;;;;27.30;25.40;;;;;;;;;;5094262;28;20560;-76
2022/08/16 02:45:10;;;;;;;25.00;23.50;;;;;;;;;;5094506;28;20414;-76
2022/08/16 02:47:38;;;;;;;24.97;23.27;;;;;;;;;;5094101;28;20906;-76
2022/08/16 02:50:06;;;;;;;25.93;24.43;;;;;;;;;;5094710;28;20406;-75
2022/08/16 02:52:35;;;;;;;26.47;24.57;;;;;;;;;;5094318;28;20439;-76
2022/08/16 02:55:02;;;;;;;27.50;25.90;;;;;;;;;;5094224;28;20497;-76
2022/08/16 02:57:30;;;;;;;25.20;23.80;;;;;;;;;;5094011;28;20485;-76
2022/08/16 02:59:57;;;;;;;25.27;23.67;;;;;;;;;;5094036;28;20414;-76
2022/08/16 03:02:25;;;;;;;24.73;23.40;;;;;;;;;;5094104;28;20469;-76
2022/08/16 03:04:52;;;;;;;26.10;24.60;;;;;;;;;;5092883;28;20842;-76
2022/08/16 03:07:19;;;;;;;24.83;23.23;;;;;;;;;;5094164;28;20765;-77
2022/08/16 03:09:48;;;;;;;24.67;23.17;;;;;;;;;;5093746;28;20447;-77
2022/08/16 03:12:18;;;;;;;24.23;22.83;;;;;;;;;;5093841;28;20445;-77
2022/08/16 03:14:45;;;;;;;26.77;25.00;;;;;;;;;;5093484;28;20843;-76
2022/08/16 03:17:12;;;;;;;25.57;23.97;;;;;;;;;;5093456;28;20850;-76
2022/08/16 03:19:40;;;;;;;25.00;23.37;;;;;;;;;;5093646;28;20417;-77
2022/08/16 03:22:07;;;;;;;25.53;23.87;;;;;;;;;;5092863;28;20495;-76
2022/08/16 03:24:34;;;;;;;25.23;23.70;;;;;;;;;;5093671;28;20414;-76
2022/08/16 03:27:04;;;;;;;27.20;25.10;;;;;;;;;;5093949;28;20467;-76
2022/08/16 03:29:33;;;;;;;25.13;23.50;;;;;;;;;;5093401;28;20777;-76
2022/08/16 03:32:00;;;;;;;26.87;24.87;;;;;;;;;;5093620;28;20417;-76
2022/08/16 03:34:27;;;;;;;25.70;23.73;;;;;;;;;;5093282;28;20811;-76
2022/08/16 03:36:55;;;;;;;26.20;24.40;;;;;;;;;;5093644;28;20475;-76
2022/08/16 03:39:22;;;;;;;26.57;24.97;;;;;;;;;;5093458;28;20438;-76
2022/08/16 03:41:50;;;;;;;26.17;24.30;;;;;;;;;;5093212;28;20482;-76
2022/08/16 03:44:19;;;;;;;25.80;24.30;;;;;;;;;;5093150;28;20896;-76
2022/08/16 03:46:47;;;;;;;26.57;25.00;;;;;;;;;;5093543;28;21107;-76
2022/08/16 03:49:14;;;;;;;27.10;25.37;;;;;;;;;;5093251;28;20920;-77
2022/08/16 03:51:42;;;;;;;25.30;23.70;;;;;;;;;;5093078;28;20446;-76
2022/08/16 03:54:09;;;;;;;25.23;23.10;;;;;;;;;;5093123;28;20411;-76
2022/08/16 03:56:37;;;;;;;25.20;23.70;;;;;;;;;;5093186;28;20410;-76
2022/08/16 03:59:04;;;;;;;26.50;24.90;;;;;;;;;;5092938;28;20890;-77
2022/08/16 04:01:33;;;;;;;26.50;24.80;;;;;;;;;;5092778;28;20474;-76
2022/08/16 04:04:00;;;;;;;25.60;24.00;;;;;;;;;;5093155;28;20443;-76
2022/08/16 04:06:27;;;;;;;25.20;23.50;;;;;;;;;;5092925;28;20414;-76
2022/08/16 04:08:55;;;;;;;25.30;23.67;;;;;;;;;;5092910;28;20414;-77
2022/08/16 04:11:22;;;;;;;26.13;24.53;;;;;;;;;;5093117;28;20436;-77
2022/08/16 04:13:49;;;;;;;25.60;24.10;;;;;;;;;;5092478;28;20431;-76
2022/08/16 04:16:17;;;;;;;24.90;23.50;;;;;;;;;;5092663;28;20452;-76
2022/08/16 04:18:46;;;;;;;27.57;25.70;;;;;;;;;;5092735;28;20444;-76
2022/08/16 04:21:13;;;;;;;24.70;23.30;;;;;;;;;;5092939;28;20416;-76
2022/08/16 04:23:40;;;;;;;26.07;24.37;;;;;;;;;;5092608;28;20421;-76
2022/08/16 04:26:08;;;;;;;25.93;24.17;;;;;;;;;;5092611;28;20878;-76
2022/08/16 04:28:35;;;;;;;26.43;24.83;;;;;;;;;;5092940;28;20434;-76
2022/08/16 04:31:03;;;;;;;26.00;24.50;;;;;;;;;;5092781;28;20446;-76
2022/08/16 04:33:30;;;;;;;26.53;24.77;;;;;;;;;;5095841;28;20414;-76
2022/08/16 04:35:59;;;;;;;26.43;24.93;;;;;;;;;;5096698;28;20442;-76
2022/08/16 04:38:26;;;;;;;26.50;25.00;;;;;;;;;;5096829;28;20404;-77
2022/08/16 04:40:53;;;;;;;26.50;25.03;;;;;;;;;;5096676;28;20439;-76
2022/08/16 04:43:21;;;;;;;26.20;24.60;;;;;;;;;;5096423;28;20464;-76
2022/08/16 04:45:48;;;;;;;25.80;24.03;;;;;;;;;;5096541;28;20447;-76
2022/08/16 04:48:15;;;;;;;26.40;24.70;;;;;;;;;;5096484;28;20931;-76
2022/08/16 04:50:43;;;;;;;25.73;24.13;;;;;;;;;;5096764;28;20414;-76
2022/08/16 04:53:12;;;;;;;25.40;23.80;;;;;;;;;;5096675;28;20530;-76
2022/08/16 04:55:39;;;;;;;25.50;24.07;;;;;;;;;;5096590;28;20432;-76
2022/08/16 04:58:07;;;;;;;26.23;24.37;;;;;;;;;;5096685;28;20741;-76
2022/08/16 05:00:34;;;;;;;25.67;23.90;;;;;;;;;;5096211;28;20753;-76
2022/08/16 05:03:04;;;;;;;26.70;25.10;;;;;;;;;;5096465;28;20515;-76
2022/08/16 05:05:32;;;;;;;25.67;24.10;;;;;;;;;;5096513;28;20425;-76
2022/08/16 05:07:59;;;;;;;25.43;23.87;;;;;;;;;;5096225;28;20955;-75
2022/08/16 05:10:28;;;;;;;26.30;24.80;;;;;;;;;;5096387;28;20458;-76
2022/08/16 05:12:56;;;;;;;27.00;25.40;;;;;;;;;;5096015;28;20440;-75
2022/08/16 05:15:23;;;;;;;27.97;26.27;;;;;;;;;;5095821;28;20979;-75
2022/08/16 05:17:50;;;;;;;27.60;26.00;;;;;;;;;;5096272;28;20816;-76
2022/08/16 05:20:18;;;;;;;26.17;24.67;;;;;;;;;;5096290;28;20432;-76
2022/08/16 05:22:45;;;;;;;26.43;24.70;;;;;;;;;;5096025;28;20464;-75
2022/08/16 05:25:13;;;;;;;26.47;24.60;;;;;;;;;;5095734;28;20438;-77
2022/08/16 05:27:42;;;;;;;26.33;24.73;;;;;;;;;;5095796;28;20500;-76
2022/08/16 05:30:11;;;;;;;27.00;24.70;;;;;;;;;;5095774;28;20402;-75
2022/08/16 05:32:40;;;;;;;26.20;24.17;;;;;;;;;;5095913;28;20493;-75
2022/08/16 05:35:08;;;;;;;26.13;24.53;;;;;;;;;;5095935;28;20800;-76
2022/08/16 05:37:35;;;;;;;26.73;25.13;;;;;;;;;;5095646;28;20940;-76
2022/08/16 05:40:03;;;;;;;26.13;24.53;;;;;;;;;;5095871;28;20471;-76
2022/08/16 05:42:31;;;;;;;26.20;24.60;;;;;;;;;;5095853;28;20526;-76
2022/08/16 05:45:01;;;;;;;25.77;24.10;;;;;;;;;;5095442;28;20414;-76
2022/08/16 05:47:28;;;;;;;24.50;23.10;;;;;;;;;;5095876;28;20449;-75
2022/08/16 05:49:55;;;;;;;24.67;23.30;;;;;;;;;;5094155;28;20455;-76
2022/08/16 05:52:23;;;;;;;25.67;24.10;;;;;;;;;;5095550;28;20426;-75
2022/08/16 05:54:50;;;;;;;25.27;23.73;;;;;;;;;;5095117;28;20418;-76
2022/08/16 05:57:18;;;;;;;25.23;23.80;;;;;;;;;;5095578;28;20443;-76
2022/08/16 05:59:46;;;;;;;25.37;23.40;;;;;;;;;;5095396;28;20878;-76
2022/08/16 06:02:15;;;;;;;24.27;22.87;;;;;;;;;;5095098;28;20454;-75
2022/08/16 06:04:42;;;;;;;25.50;23.90;;;;;;;;;;5095373;28;20428;-75
2022/08/16 06:07:10;;;;;;;25.03;23.30;;;;;;;;;;5095382;28;20437;-76
2022/08/16 06:09:38;;;;;;;24.17;22.73;;;;;;;;;;5095307;28;20418;-75
2022/08/16 06:12:06;;;;;;;25.13;23.43;;;;;;;;;;5094884;28;20492;-76
2022/08/16 06:14:33;;;;;;;24.00;22.40;;;;;;;;;;5095207;28;20407;-75
2022/08/16 06:17:00;;;;;;;23.53;22.20;;;;;;;;;;5094842;28;20450;-75
2022/08/16 06:19:29;;;;;;;24.60;23.13;;;;;;;;;;5094891;28;20444;-75
2022/08/16 06:21:56;;;;;;;25.20;23.60;;;;;;;;;;5094989;28;20444;-75
2022/08/16 06:24:24;;;;;;;24.07;22.67;;;;;;;;;;5094793;28;20425;-75
2022/08/16 06:26:51;;;;;;;24.07;22.77;;;;;;;;;;5094820;28;20413;-76
2022/08/16 06:29:18;;;;;;;23.13;21.93;;;;;;;;;;5094750;28;20440;-75
2022/08/16 06:31:46;;;;;;;22.77;21.47;;;;;;;;;;5094543;28;20797;-75
2022/08/16 06:34:14;;;;;;;24.50;23.10;;;;;;;;;;5094629;28;20448;-75
2022/08/16 06:36:43;;;;;;;24.20;22.87;;;;;;;;;;5094473;28;20854;-76
2022/08/16 06:39:10;;;;;;;23.20;21.80;;;;;;;;;;5094700;28;20451;-76
2022/08/16 06:41:37;;;;;;;24.77;23.37;;;;;;;;;;5094772;28;20425;-75
2022/08/16 06:44:05;;;;;;;25.00;23.20;;;;;;;;;;5094559;28;20478;-76
2022/08/16 06:46:34;;;;;;;24.17;22.60;;;;;;;;;;5094557;28;20436;-75
2022/08/16 06:49:01;;;;;;;24.07;22.47;;;;;;;;;;5094536;28;20411;-76
2022/08/16 06:51:29;;;;;;;24.93;23.00;;;;;;;;;;5094490;28;20439;-75
2022/08/16 06:53:57;;;;;;;24.30;23.00;;;;;;;;;;5094311;28;20463;-76
2022/08/16 06:56:25;;;;;;;24.40;22.80;;;;;;;;;;5092898;28;20440;-75
2022/08/16 06:58:52;;;;;;;23.33;22.03;;;;;;;;;;5094388;28;20419;-76
2022/08/16 07:01:20;;;;;;;24.63;23.20;;;;;;;;;;5094333;28;20410;-76
2022/08/16 07:03:47;;;;;;;24.23;22.83;;;;;;;;;;5093809;28;21014;-75
2022/08/16 07:06:15;;;;;;;23.20;22.00;;;;;;;;;;5094284;28;20413;-75
2022/08/16 07:08:42;;;;;;;24.67;23.00;;;;;;;;;;5094267;28;20419;-76
2022/08/16 07:11:11;;;;;;;23.80;22.20;;;;;;;;;;5094191;28;20891;-75
2022/08/16 07:13:39;;;;;;;24.83;23.17;;;;;;;;;;5093954;28;20467;-75
2022/08/16 07:16:09;;;;;;;23.30;22.10;;;;;;;;;;5093882;28;20464;-75
2022/08/16 07:18:36;;;;;;;24.60;23.10;;;;;;;;;;5093730;28;20419;-75
2022/08/16 07:21:03;;;;;;;24.30;22.83;;;;;;;;;;5093748;28;20953;-75
2022/08/16 07:23:31;;;;;;;25.70;24.00;;;;;;;;;;5093749;28;20817;-76
2022/08/16 07:25:58;;;;;;;24.17;22.67;;;;;;;;;;5093372;28;20422;-76
2022/08/16 07:28:27;;;;;;;24.03;22.63;;;;;;;;;;5093817;28;20493;-75
2022/08/16 07:30:54;;;;;;;27.13;25.30;;;;;;;;;;5093452;28;20447;-75
2022/08/16 07:33:22;;;;;;;26.80;25.10;;;;;;;;;;5093689;28;20407;-75
2022/08/16 07:35:49;;;;;;;24.70;23.20;;;;;;;;;;5093753;28;20439;-76
2022/08/16 07:38:16;;;;;;;25.97;24.13;;;;;;;;;;5093682;28;20426;-76
2022/08/16 07:40:44;;;;;;;26.50;24.90;;;;;;;;;;5093321;28;20414;-75
2022/08/16 07:43:11;;;;;;;26.37;24.63;;;;;;;;;;5093418;28;20442;-75
2022/08/16 07:45:40;;;;;;;25.53;23.83;;;;;;;;;;5093276;28;20838;-75
2022/08/16 07:48:07;;;;;;;27.33;25.63;;;;;;;;;;5093464;28;20448;-75
2022/08/16 07:50:35;;;;;;;25.90;24.10;;;;;;;;;;5093167;28;20433;-75
2022/08/16 07:53:02;;;;;;;26.20;24.60;;;;;;;;;;5093443;28;20413;-76
2022/08/16 07:55:29;;;;;;;26.20;24.40;;;;;;;;;;5092968;28;20414;-75
2022/08/16 07:57:57;;;;;;;26.00;24.17;;;;;;;;;;5093079;28;20888;-76
2022/08/16 08:00:24;;;;;;;26.37;24.67;;;;;;;;;;5092908;28;20447;-75
2022/08/16 08:02:54;;;;;;;29.00;26.90;;;;;;;;;;5092860;28;20846;-75
2022/08/16 08:05:22;;;;;;;26.80;24.60;;;;;;;;;;5093263;28;20411;-75
2022/08/16 08:07:52;;;;;;;27.27;25.57;;;;;;;;;;5092871;28;20435;-75
2022/08/16 08:10:19;;;;;;;27.80;26.03;;;;;;;;;;5092853;28;20836;-75
2022/08/16 08:12:47;;;;;;;27.23;25.43;;;;;;;;;;5092907;28;20447;-75
2022/08/16 08:15:15;;;;;;;26.70;25.00;;;;;;;;;;5092792;28;20469;-76
2022/08/16 08:17:43;;;;;;;27.70;25.80;;;;;;;;;;5092956;28;20414;-75
2022/08/16 08:20:15;;;;;;;26.20;24.60;;;;;;;;;;5092757;28;20432;-75
2022/08/16 08:22:45;;;;;;;26.70;24.83;;;;;;;;;;5091315;28;20965;-75
2022/08/16 08:25:13;;;;;;;25.80;24.30;;;;;;;;;;5092833;28;20446;-76
2022/08/16 08:27:41;;;;;;;28.77;26.83;;;;;;;;;;5091827;28;20406;-75
2022/08/16 08:30:09;;;;;;;29.13;27.03;;;;;;;;;;5093014;28;20513;-75
2022/08/16 08:32:37;;;;;;;30.53;28.17;;;;;;;;;;5092807;28;20467;-75
2022/08/16 08:35:05;;;;;;;28.83;26.90;;;;;;;;;;5092631;28;20892;-75
2022/08/16 08:37:34;;;;;;;28.63;26.70;;;;;;;;;;5092860;28;20422;-75
2022/08/16 08:40:01;;;;;;;27.00;25.40;;;;;;;;;;5092408;28;20423;-76
2022/08/16 08:42:29;;;;;;;28.67;26.87;;;;;;;;;;5092483;28;20415;-76
2022/08/16 08:44:57;;;;;;;29.33;27.30;;;;;;;;;;5092309;28;20491;-75
2022/08/16 08:47:24;;;;;;;29.60;27.33;;;;;;;;;;5092828;28;20403;-76
2022/08/16 08:49:51;;;;;;;27.93;25.90;;;;;;;;;;5092345;28;20776;-76
2022/08/16 08:52:19;;;;;;;27.93;26.13;;;;;;;;;;5092520;28;20438;-75
2022/08/16 08:54:48;;;;;;;28.73;26.63;;;;;;;;;;5092493;28;20435;-76
2022/08/16 08:57:17;;;;;;;28.00;26.20;;;;;;;;;;5092672;28;20476;-76
2022/08/16 08:59:45;;;;;;;29.13;26.90;;;;;;;;;;5092693;28;20799;-75
2022/08/16 09:02:13;;;;;;;30.57;28.30;;;;;;;;;;5092347;28;20919;-76
2022/08/16 09:04:41;;;;;;;29.13;27.13;;;;;;;;;;5092500;28;20482;-75
2022/08/16 09:07:08;;;;;;;29.03;27.03;;;;;;;;;;5092821;28;20486;-75
2022/08/16 09:09:35;;;;;;;30.40;28.20;;;;;;;;;;5092194;28;20888;-76
2022/08/16 09:12:05;;;;;;;30.50;28.20;;;;;;;;;;5092163;28;20453;-75
2022/08/16 09:14:32;;;;;;;28.90;27.10;;;;;;;;;;5092410;28;20414;-75
2022/08/16 09:17:00;;;;;;;29.43;27.43;;;;;;;;;;5092079;28;20496;-75
2022/08/16 09:19:27;;;;;;;29.27;27.30;;;;;;;;;;5093273;28;20422;-75
2022/08/16 09:21:55;;;;;;;28.67;26.87;;;;;;;;;;5096192;28;20423;-75
2022/08/16 09:24:22;;;;;;;29.60;27.60;;;;;;;;;;5096174;28;20462;-75
2022/08/16 09:26:49;;;;;;;28.50;26.50;;;;;;;;;;5095689;28;20411;-76
2022/08/16 09:29:19;;;;;;;30.43;28.53;;;;;;;;;;5096150;28;20796;-76
2022/08/16 09:31:47;;;;;;;28.73;26.50;;;;;;;;;;5095644;28;20436;-75
2022/08/16 09:34:15;;;;;;;28.00;26.00;;;;;;;;;;5095641;28;20813;-75
2022/08/16 09:36:42;;;;;;;30.00;27.90;;;;;;;;;;5095930;28;20488;-75
2022/08/16 09:39:10;;;;;;;28.87;26.97;;;;;;;;;;5095849;28;20439;-75
2022/08/16 09:41:37;;;;;;;27.40;25.50;;;;;;;;;;5095946;28;20407;-75
2022/08/16 09:44:05;;;;;;;26.70;25.00;;;;;;;;;;5095400;28;20573;-75
2022/08/16 09:46:34;;;;;;;29.43;27.30;;;;;;;;;;5095752;28;20412;-76
2022/08/16 09:49:01;;;;;;;26.60;25.00;;;;;;;;;;5095347;28;20415;-75
2022/08/16 09:51:28;;;;;;;27.13;25.43;;;;;;;;;;5095697;28;20440;-75
2022/08/16 09:53:56;;;;;;;26.37;24.57;;;;;;;;;;5095282;28;20419;-76
2022/08/16 09:56:26;;;;;;;26.20;24.40;;;;;;;;;;5095441;28;20447;-75
2022/08/16 09:58:53;;;;;;;26.83;24.73;;;;;;;;;;5095450;28;20440;-75
2022/08/16 10:01:21;;;;;;;26.20;24.20;;;;;;;;;;5095477;28;20465;-76
2022/08/16 10:03:50;;;;;;;28.97;26.97;;;;;;;;;;5095490;28;20485;-75
2022/08/16 10:06:17;;;;;;;26.97;24.83;;;;;;;;;;5095374;28;20444;-75
2022/08/16 10:08:45;;;;;;;26.10;24.40;;;;;;;;;;5093981;28;21005;-76
2022/08/16 10:13:57;;;;;;;26.40;24.80;;;;;;;;;;5095031;28;20395;-75
2022/08/16 10:16:25;;;;;;;25.43;23.50;;;;;;;;;;5094904;28;20967;-75
2022/08/16 10:18:54;;;;;;;26.03;24.13;;;;;;;;;;5094767;28;20444;-75
2022/08/16 10:21:22;;;;;;;25.63;23.80;;;;;;;;;;5094808;28;20948;-75
2022/08/16 10:23:50;;;;;;;25.33;23.63;;;;;;;;;;5094840;28;20469;-75
2022/08/16 10:26:18;;;;;;;25.23;23.53;;;;;;;;;;5094579;28;20441;-75
2022/08/16 10:28:45;;;;;;;25.80;24.03;;;;;;;;;;5094910;28;20436;-75
2022/08/16 10:31:13;;;;;;;25.03;23.40;;;;;;;;;;5094698;28;20420;-75
2022/08/16 10:33:40;;;;;;;24.60;23.00;;;;;;;;;;5094899;28;20444;-76
2022/08/16 10:36:10;;;;;;;25.57;23.93;;;;;;;;;;5094455;28;20914;-75
2022/08/16 10:38:38;;;;;;;25.50;23.80;;;;;;;;;;5094508;28;20923;-75
2022/08/16 10:41:06;;;;;;;24.83;23.33;;;;;;;;;;5094906;28;20439;-75
2022/08/16 10:43:34;;;;;;;26.23;24.43;;;;;;;;;;5094590;28;20824;-76
2022/08/16 10:46:02;;;;;;;28.13;25.73;;;;;;;;;;5094593;28;20441;-76
2022/08/16 10:48:30;;;;;;;26.07;24.47;;;;;;;;;;5094587;28;20441;-75
2022/08/16 10:50:58;;;;;;;26.00;24.37;;;;;;;;;;5094552;28;20447;-76
2022/08/16 10:53:27;;;;;;;26.13;24.37;;;;;;;;;;5094409;28;20774;-75
2022/08/16 10:55:55;;;;;;;25.80;23.97;;;;;;;;;;5094033;28;20433;-76
2022/08/16 10:58:22;;;;;;;27.73;25.77;;;;;;;;;;5094103;28;20408;-75
2022/08/16 11:00:49;;;;;;;26.53;24.73;;;;;;;;;;5094335;28;20411;-75
2022/08/16 11:03:17;;;;;;;27.00;25.30;;;;;;;;;;5094438;28;20438;-76
2022/08/16 11:05:45;;;;;;;25.70;24.00;;;;;;;;;;5094209;28;20462;-76
2022/08/16 11:08:12;;;;;;;26.93;24.93;;;;;;;;;;5093890;28;20770;-75
2022/08/16 11:10:43;;;;;;;28.77;26.77;;;;;;;;;;5094079;28;20423;-75
2022/08/16 11:13:11;;;;;;;26.80;25.10;;;;;;;;;;5094112;28;20477;-76
2022/08/16 11:15:40;;;;;;;27.13;25.23;;;;;;;;;;5093873;28;20614;-75
2022/08/16 11:18:07;;;;;;;27.07;25.47;;;;;;;;;;5093795;28;20420;-76
2022/08/16 11:20:35;;;;;;;26.63;24.83;;;;;;;;;;5093903;28;20469;-75
2022/08/16 11:23:02;;;;;;;28.23;26.43;;;;;;;;;;5093528;28;20807;-76
2022/08/16 11:25:31;;;;;;;28.37;26.60;;;;;;;;;;5093647;28;20477;-76
2022/08/16 11:28:00;;;;;;;29.17;27.17;;;;;;;;;;5093766;28;20420;-75
2022/08/16 11:30:28;;;;;;;28.23;26.37;;;;;;;;;;5093621;28;20437;-75
2022/08/16 11:32:55;;;;;;;27.77;25.97;;;;;;;;;;5093668;28;20416;-75
2022/08/16 11:35:24;;;;;;;27.33;25.73;;;;;;;;;;5093416;28;20454;-75
2022/08/16 11:37:57;;;;;;;27.07;25.37;;;;;;;;;;5093381;28;20408;-75
2022/08/16 11:40:25;;;;;;;26.70;25.00;;;;;;;;;;5093906;28;20475;-75
2022/08/16 11:42:53;;;;;;;27.93;26.10;;;;;;;;;;5092875;28;20433;-75
2022/08/16 11:45:22;;;;;;;28.83;27.13;;;;;;;;;;5093118;28;21016;-75
2022/08/16 11:47:49;;;;;;;28.50;26.43;;;;;;;;;;5093484;28;20759;-75
2022/08/16 11:50:17;;;;;;;29.33;27.43;;;;;;;;;;5093156;28;20428;-75
2022/08/16 11:52:44;;;;;;;28.90;27.20;;;;;;;;;;5092985;28;20433;-76
2022/08/16 11:55:12;;;;;;;28.77;27.07;;;;;;;;;;5092859;28;20816;-76
2022/08/16 11:57:40;;;;;;;28.47;26.67;;;;;;;;;;5093277;28;20470;-76
2022/08/16 12:00:10;;;;;;;27.83;26.23;;;;;;;;;;5093038;28;20427;-75
2022/08/16 12:02:39;;;;;;;28.10;26.30;;;;;;;;;;5093189;28;20429;-75
2022/08/16 12:05:07;;;;;;;28.00;26.20;;;;;;;;;;5092895;28;20466;-75
2022/08/16 12:07:34;;;;;;;28.37;26.67;;;;;;;;;;5092847;28;20449;-75
2022/08/16 12:10:02;;;;;;;28.30;26.57;;;;;;;;;;5092837;28;20770;-75
2022/08/16 12:12:29;;;;;;;27.27;25.67;;;;;;;;;;5093002;28;20459;-76
2022/08/16 12:14:57;;;;;;;27.90;26.30;;;;;;;;;;5092943;28;20417;-76
2022/08/16 12:17:25;;;;;;;27.43;25.80;;;;;;;;;;5092845;28;20454;-76
2022/08/16 12:19:53;;;;;;;27.20;25.30;;;;;;;;;;5093143;28;20431;-76
2022/08/16 12:22:23;;;;;;;27.27;25.47;;;;;;;;;;5093088;28;20406;-76
2022/08/16 12:24:50;;;;;;;30.37;28.20;;;;;;;;;;5092393;28;20473;-76
2022/08/16 12:27:18;;;;;;;27.37;25.00;;;;;;;;;;5093089;28;20447;-75
2022/08/16 12:29:45;;;;;;;28.10;26.20;;;;;;;;;;5092977;28;20443;-76
2022/08/16 12:32:13;;;;;;;28.17;26.23;;;;;;;;;;5093062;28;20434;-75
2022/08/16 12:34:41;;;;;;;27.70;26.00;;;;;;;;;;5092966;28;20835;-75
2022/08/16 12:37:10;;;;;;;27.33;25.70;;;;;;;;;;5092825;28;20441;-75
2022/08/16 12:39:37;;;;;;;28.77;26.90;;;;;;;;;;5092879;28;20442;-75
2022/08/16 12:42:04;;;;;;;28.10;26.40;;;;;;;;;;5092763;28;20421;-75
2022/08/16 12:44:32;;;;;;;27.00;25.33;;;;;;;;;;5093014;28;20458;-76
2022/08/16 12:49:52;;;;;;;28.37;26.37;;;;;;;;;;5030111;28;20514;-76
2022/08/16 12:52:21;;;;;;;28.97;27.17;;;;;;;;;;5029983;28;20485;-75
2022/08/16 12:54:49;;;;;;;27.33;25.53;;;;;;;;;;5033313;28;20442;-75
2022/08/16 12:57:16;;;;;;;26.97;25.37;;;;;;;;;;5034081;28;20440;-76
2022/08/16 12:59:43;;;;;;;28.20;26.50;;;;;;;;;;5033991;28;20492;-75
2022/08/16 13:02:11;;;;;;;25.70;24.10;;;;;;;;;;5033847;28;20979;-75
2022/08/16 13:04:38;;;;;;;25.47;23.87;;;;;;;;;;5033948;28;20465;-75
2022/08/16 13:07:05;;;;;;;26.27;24.33;;;;;;;;;;5034036;28;20457;-75
2022/08/16 13:09:41;;;;;;;26.67;24.87;;;;;;;;;;5033751;28;20414;-75
2022/08/16 13:12:18;;;;;;;26.40;24.40;;;;;;;;;;5033651;28;20553;-75
2022/08/16 13:14:46;;;;;;;26.40;24.70;;;;;;;;;;5033745;28;21071;-75
2022/08/16 13:17:15;;;;;;;26.00;24.40;;;;;;;;;;5033636;28;20485;-76
2022/08/16 13:19:42;;;;;;;28.13;26.03;;;;;;;;;;5033658;28;20465;-75
2022/08/16 13:22:10;;;;;;;26.57;24.77;;;;;;;;;;5033429;28;20443;-75
2022/08/16 13:24:38;;;;;;;27.90;25.33;;;;;;;;;;5037750;28;21000;-75
2022/08/16 13:27:06;;;;;;;27.20;25.10;;;;;;;;;;5096342;28;20444;-76
2022/08/16 13:29:33;;;;;;;26.00;24.20;;;;;;;;;;5096165;28;20437;-75
2022/08/16 13:32:01;;;;;;;25.87;23.90;;;;;;;;;;5095670;28;20425;-75
2022/08/16 13:34:28;;;;;;;26.67;24.67;;;;;;;;;;5095820;28;20449;-75
2022/08/16 13:36:55;;;;;;;28.87;27.27;;;;;;;;;;5095961;28;20443;-75
2022/08/16 13:39:23;;;;;;;28.47;26.47;;;;;;;;;;5095989;28;20427;-75
2022/08/16 13:41:52;;;;;;;27.83;26.13;;;;;;;;;;5095804;28;20437;-75
2022/08/16 13:44:19;;;;;;;28.97;27.03;;;;;;;;;;5095773;28;20497;-75
2022/08/16 13:46:47;;;;;;;26.87;25.03;;;;;;;;;;5096020;28;20408;-76
2022/08/16 13:49:15;;;;;;;26.80;25.17;;;;;;;;;;5095804;28;20457;-76
2022/08/16 13:51:42;;;;;;;27.53;25.80;;;;;;;;;;5095443;28;20903;-75
2022/08/16 13:54:09;;;;;;;26.83;25.13;;;;;;;;;;5095273;28;20448;-75
2022/08/16 13:56:38;;;;;;;27.20;25.50;;;;;;;;;;5095536;28;20452;-75
2022/08/16 13:59:07;;;;;;;26.40;24.90;;;;;;;;;;5095363;28;20926;-76
2022/08/16 14:01:35;;;;;;;27.30;25.70;;;;;;;;;;5095364;28;20411;-75
2022/08/16 14:04:02;;;;;;;27.87;25.87;;;;;;;;;;5095479;28;20515;-76
2022/08/16 14:06:30;;;;;;;27.50;25.20;;;;;;;;;;5094363;28;20562;-75
2022/08/16 14:08:57;;;;;;;26.47;24.80;;;;;;;;;;5095474;28;20433;-76
2022/08/16 14:11:24;;;;;;;26.83;25.23;;;;;;;;;;5095155;28;20927;-75
2022/08/16 14:13:52;;;;;;;27.00;25.40;;;;;;;;;;5094953;28;20887;-76
2022/08/16 14:16:21;;;;;;;28.57;26.50;;;;;;;;;;5094687;28;20477;-76
2022/08/16 14:18:48;;;;;;;26.90;25.10;;;;;;;;;;5094848;28;20803;-75
2022/08/16 14:21:15;;;;;;;27.27;25.57;;;;;;;;;;5095154;28;20441;-76
2022/08/16 14:23:43;;;;;;;27.40;25.77;;;;;;;;;;5094704;28;20451;-75
2022/08/16 14:26:10;;;;;;;26.83;25.23;;;;;;;;;;5094861;28;20476;-75